KHJH

Hebron Municipal Airport

Hebron, Nebraska, USA
METAR KHJH 202335Z AUTO 33011G16KT 10SM BKN030 BKN036 OVC060 22/16 A3000 RMK AO2 T02170163
Observed Flight Rules
Aug-20 @ 23:35 UTC (32 minutes ago) Marginal Visual Flight Rules
Wind Visibility Clouds
330° at 11 knots
 Gusting to 16 knots
10 miles
  • Broken at 3,000' AGL
  • Broken at 3,600' AGL
  • Overcast at 6,000' AGL
Temperatures Readings
Current 22°C / 72°F
Dewpoint 16°C / 61°F
Humidity 69%
Altimeter 30" Hg
Pressure 1016 hPa
Elevation 447
METAR KHJH 202335Z AUTO 33011G16KT 10SM BKN030 BKN036 OVC060 22/16 A3000 RMK AO2 T02170163
Observed Flight Rules
Aug-20 @ 23:35 UTC
(32 minutes ago)
MVFR
Wind Visibility
330° at 11 knots
 Gusting to 16 knots
10 miles
Clouds
  • Broken at 3,000' AGL
  • Broken at 3,600' AGL
  • Overcast at 6,000' AGL
Temperature Dewpoint
22°C / 72°F 16°C / 61°F
Humidity Altimeter Pressure
69% 30" Hg 1016 hPa